createdAt,value
2022-12-15T00:05:17.095Z,19.37
2022-12-15T00:10:37.251Z,18.80
2022-12-15T00:15:57.566Z,18.13
2022-12-15T00:21:17.990Z,15.70
2022-12-15T00:26:38.288Z,17.60
2022-12-15T00:31:58.541Z,18.37
2022-12-15T00:37:18.860Z,18.00
2022-12-15T00:42:20.468Z,17.40
2022-12-15T00:47:22.323Z,16.33
2022-12-15T00:52:42.758Z,19.27
2022-12-15T00:58:03.459Z,20.60
2022-12-15T01:03:53.165Z,20.10
2022-12-15T01:09:13.326Z,19.60
2022-12-15T01:14:33.551Z,19.50
2022-12-15T01:19:53.981Z,18.40
2022-12-15T01:24:55.909Z,18.70
2022-12-15T01:29:57.551Z,17.10
2022-12-15T01:34:59.185Z,20.53
2022-12-15T01:40:19.808Z,19.40
2022-12-15T01:45:24.204Z,19.87
2022-12-15T01:50:26.349Z,19.50
2022-12-15T01:55:30.545Z,20.27
2022-12-15T02:00:32.289Z,18.13
2022-12-15T02:05:35.088Z,18.83
2022-12-15T02:11:03.721Z,19.07
2022-12-15T02:16:18.690Z,20.03
2022-12-15T02:21:51.564Z,19.33
2022-12-15T02:27:25.303Z,18.80
2022-12-15T02:32:31.025Z,20.97
2022-12-15T02:37:35.516Z,19.10
2022-12-15T02:42:42.997Z,20.80
2022-12-15T02:48:05.914Z,21.30
2022-12-15T02:53:24.046Z,19.37
2022-12-15T02:59:13.088Z,20.80
2022-12-15T03:04:16.184Z,20.07
2022-12-15T03:09:17.811Z,23.03
2022-12-15T03:14:19.817Z,21.13
2022-12-15T03:19:21.722Z,20.80
2022-12-15T03:24:23.357Z,20.50
2022-12-15T03:29:25.091Z,22.37
2022-12-15T03:34:26.941Z,21.20
2022-12-15T03:39:28.558Z,21.13
2022-12-15T03:44:30.191Z,20.90
2022-12-15T03:49:32.075Z,20.10
2022-12-15T03:54:34.394Z,21.57
2022-12-15T03:59:36.061Z,20.43
2022-12-15T04:04:37.898Z,20.07
2022-12-15T04:09:39.692Z,19.77
2022-12-15T04:14:42.720Z,18.70
2022-12-15T04:20:02.948Z,20.27
2022-12-15T04:25:24.946Z,19.80
2022-12-15T04:30:45.327Z,21.47
2022-12-15T04:36:06.243Z,21.50
2022-12-15T04:41:26.879Z,19.57
2022-12-15T04:46:47.245Z,20.83
2022-12-15T04:52:07.626Z,19.50
2022-12-15T04:57:27.829Z,22.37
2022-12-15T05:02:48.296Z,21.23
2022-12-15T05:08:10.245Z,18.17
2022-12-15T05:13:30.869Z,18.23
2022-12-15T05:18:51.924Z,19.73
2022-12-15T05:24:12.690Z,21.70
2022-12-15T05:29:32.874Z,22.67
2022-12-15T05:34:36.009Z,22.43
2022-12-15T05:39:37.629Z,25.33
2022-12-15T05:44:39.435Z,21.27
2022-12-15T05:49:41.190Z,18.27
2022-12-15T05:54:42.862Z,19.20
2022-12-15T05:59:44.588Z,19.53
2022-12-15T06:04:46.433Z,17.93
2022-12-15T06:09:48.165Z,19.97
2022-12-15T06:14:50.025Z,18.90
2022-12-15T06:19:51.774Z,18.67
2022-12-15T06:24:53.418Z,18.60
2022-12-15T06:29:57.522Z,20.13
2022-12-15T06:34:59.400Z,20.87
2022-12-15T06:40:01.089Z,20.50
2022-12-15T06:45:02.909Z,22.20
2022-12-15T06:50:04.883Z,56.03
2022-12-15T06:55:06.864Z,20.60
2022-12-15T07:00:09.341Z,20.80
2022-12-15T07:05:10.975Z,19.63
2022-12-15T07:10:12.720Z,20.63
2022-12-15T07:15:15.277Z,19.53
2022-12-15T07:20:16.956Z,20.80
2022-12-15T07:25:19.219Z,21.87
2022-12-15T07:30:20.848Z,20.43
2022-12-15T07:35:22.597Z,20.23
2022-12-15T07:40:24.329Z,22.63
2022-12-15T07:45:26.035Z,20.27
2022-12-15T07:50:29.032Z,18.87
2022-12-15T08:00:55.245Z,20.20
2022-12-15T08:06:03.631Z,19.77
2022-12-15T08:11:06.828Z,23.90
2022-12-15T08:16:08.628Z,23.80
2022-12-15T08:21:11.602Z,31.17
2022-12-15T08:26:15.599Z,28.37
2022-12-15T08:31:19.954Z,26.90
2022-12-15T08:36:21.744Z,24.80
2022-12-15T08:41:26.944Z,22.73
2022-12-15T08:46:31.111Z,25.63
2022-12-15T08:51:33.454Z,23.80
2022-12-15T08:56:35.719Z,24.77
2022-12-15T09:01:40.227Z,26.03
2022-12-15T09:06:42.162Z,25.33
2022-12-15T09:11:43.879Z,23.97
2022-12-15T09:16:45.623Z,24.63
2022-12-15T09:21:52.015Z,24.17
2022-12-15T09:26:53.622Z,22.23
2022-12-15T09:31:55.283Z,25.07
2022-12-15T09:36:57.052Z,24.70
2022-12-15T09:42:00.084Z,25.13
2022-12-15T09:47:11.889Z,24.87
2022-12-15T09:52:17.426Z,24.60
2022-12-15T09:57:27.544Z,24.50
2022-12-15T10:02:34.310Z,22.07
2022-12-15T10:07:41.946Z,22.60
2022-12-15T10:12:54.825Z,21.03
2022-12-15T10:18:22.694Z,18.67
2022-12-15T10:23:25.738Z,19.07
2022-12-15T10:29:03.306Z,18.53
2022-12-15T10:34:26.296Z,18.63
2022-12-15T10:39:42.228Z,17.17
2022-12-15T10:44:52.882Z,16.77
2022-12-15T10:49:56.203Z,17.77
2022-12-15T10:54:58.133Z,18.20
2022-12-15T11:00:27.331Z,17.00
2022-12-15T11:05:29.007Z,19.23
2022-12-15T11:10:52.410Z,17.20
2022-12-15T11:15:56.373Z,16.93
2022-12-15T11:21:16.889Z,18.77
2022-12-15T11:26:44.793Z,21.70
2022-12-15T11:31:48.780Z,19.10
2022-12-15T11:37:13.026Z,17.97
2022-12-15T11:42:25.075Z,21.03
2022-12-15T11:47:42.597Z,20.23
2022-12-15T11:53:12.087Z,20.17
2022-12-15T11:58:51.831Z,18.97
2022-12-15T12:04:04.610Z,17.77
2022-12-15T12:09:25.262Z,19.27
2022-12-15T12:14:35.660Z,17.83
2022-12-15T12:19:50.651Z,18.83
2022-12-15T12:25:00.557Z,18.50
2022-12-15T12:30:11.881Z,17.60
2022-12-15T12:35:31.279Z,19.20
2022-12-15T12:40:40.873Z,18.27
2022-12-15T12:45:50.342Z,19.73
2022-12-15T12:50:54.138Z,18.70
2022-12-15T12:55:56.199Z,19.10
2022-12-15T13:01:21.106Z,18.43
2022-12-15T13:06:42.951Z,20.43
2022-12-15T13:17:33.064Z,18.27
2022-12-15T13:22:36.675Z,18.93
2022-12-15T13:27:40.539Z,20.20
2022-12-15T13:32:47.109Z,17.80
2022-12-15T13:37:53.116Z,19.57
2022-12-15T13:43:19.024Z,16.33
2022-12-15T13:48:42.991Z,19.43
2022-12-15T13:54:08.012Z,20.80
2022-12-15T13:59:38.495Z,19.03
2022-12-15T14:04:40.120Z,17.93
2022-12-15T14:09:42.391Z,18.70
2022-12-15T14:14:49.163Z,18.80
2022-12-15T14:19:51.462Z,17.27
2022-12-15T14:25:18.809Z,19.40
2022-12-15T14:30:33.237Z,25.30
2022-12-15T14:35:39.769Z,22.83
2022-12-15T14:40:42.281Z,21.97
2022-12-15T14:45:44.319Z,21.10
2022-12-15T14:50:49.389Z,19.83
2022-12-15T14:55:52.913Z,20.43
2022-12-15T15:00:55.128Z,25.43
2022-12-15T15:03:05.152Z,18.07
2022-12-15T15:06:03.675Z,19.50
2022-12-15T15:11:29.800Z,18.37
2022-12-15T15:16:31.743Z,18.07
2022-12-15T15:21:37.200Z,17.93
2022-12-15T15:26:39.901Z,18.80
2022-12-15T15:31:42.248Z,18.70
2022-12-15T15:36:44.123Z,18.10
2022-12-15T15:41:45.760Z,19.50
2022-12-15T15:46:50.576Z,18.40
2022-12-15T15:51:52.288Z,17.47
2022-12-15T15:56:53.981Z,17.13
2022-12-15T16:01:59.178Z,18.90
2022-12-15T16:07:01.016Z,18.43
2022-12-15T16:12:02.947Z,18.97
2022-12-15T16:17:06.117Z,19.17
2022-12-15T16:22:13.848Z,19.80
2022-12-15T16:27:15.945Z,18.33
2022-12-15T16:32:18.011Z,19.87
2022-12-15T16:37:25.899Z,19.07
2022-12-15T16:42:27.645Z,19.17
2022-12-15T16:47:29.439Z,18.60
2022-12-15T16:52:31.150Z,20.93
2022-12-15T16:57:33.199Z,19.93
2022-12-15T17:02:36.123Z,22.13
2022-12-15T17:07:38.849Z,19.23
2022-12-15T17:12:40.628Z,19.37
2022-12-15T17:17:42.357Z,19.73
2022-12-15T17:22:46.259Z,24.53
2022-12-15T17:27:50.031Z,23.50
2022-12-15T17:32:51.873Z,20.60
2022-12-15T17:37:53.539Z,21.07
2022-12-15T17:42:55.222Z,21.73
2022-12-15T17:47:57.003Z,22.37
2022-12-15T17:53:03.934Z,21.33
2022-12-15T17:58:23.509Z,20.23
2022-12-15T18:03:49.200Z,23.27
2022-12-15T18:09:00.261Z,20.73
2022-12-15T18:14:02.094Z,20.40
2022-12-15T18:19:05.792Z,20.43
2022-12-15T18:24:31.449Z,19.47
2022-12-15T18:29:33.189Z,19.90
2022-12-15T18:34:37.675Z,19.37
2022-12-15T18:39:39.790Z,20.17
2022-12-15T18:45:01.316Z,19.87
2022-12-15T18:50:11.980Z,19.80
2022-12-15T18:55:19.827Z,18.23
2022-12-15T19:00:30.811Z,20.20
2022-12-15T19:05:32.652Z,24.33
2022-12-15T19:10:34.834Z,20.63
2022-12-15T19:15:36.549Z,34.37
2022-12-15T19:20:56.940Z,25.57
2022-12-15T19:25:58.814Z,27.17
2022-12-15T19:31:02.751Z,29.10
2022-12-15T19:36:19.490Z,26.33
2022-12-15T19:41:24.124Z,28.13
2022-12-15T19:46:27.482Z,29.43
2022-12-15T19:51:31.896Z,30.77
2022-12-15T19:56:33.753Z,32.77
2022-12-15T20:01:38.583Z,32.97
2022-12-15T20:06:40.765Z,31.90
2022-12-15T20:18:27.974Z,33.63
2022-12-15T20:23:32.080Z,35.47
2022-12-15T20:28:36.819Z,33.50
2022-12-15T20:33:38.731Z,35.33
2022-12-15T20:38:40.494Z,37.10
2022-12-15T20:43:44.885Z,41.77
2022-12-15T20:48:47.535Z,42.30
2022-12-15T20:53:50.725Z,41.00
2022-12-15T20:58:56.061Z,41.07
2022-12-15T21:03:58.997Z,41.47
2022-12-15T21:09:03.480Z,39.63
2022-12-15T21:14:09.729Z,37.23
2022-12-15T21:19:20.215Z,36.17
2022-12-15T21:24:25.096Z,36.13
2022-12-15T21:29:28.854Z,36.40
2022-12-15T21:34:30.702Z,31.73
2022-12-15T21:39:36.362Z,31.03
2022-12-15T21:44:39.237Z,31.20
2022-12-15T21:49:41.085Z,32.97
2022-12-15T21:54:42.975Z,30.87
2022-12-15T21:59:44.753Z,31.77
2022-12-15T22:04:48.811Z,31.73
2022-12-15T22:09:51.805Z,32.17
2022-12-15T22:14:53.626Z,30.90
2022-12-15T22:19:55.506Z,30.37
2022-12-15T22:24:57.257Z,28.00
2022-12-15T22:30:01.627Z,29.30
2022-12-15T22:35:26.226Z,27.63
2022-12-15T22:40:27.889Z,26.30
2022-12-15T22:45:29.779Z,27.03
2022-12-15T22:50:31.569Z,26.90
2022-12-15T22:55:34.158Z,23.50
2022-12-15T23:00:35.969Z,26.20
2022-12-15T23:05:40.648Z,24.07
2022-12-15T23:11:16.886Z,24.70
2022-12-15T23:16:22.082Z,27.10
2022-12-15T23:21:26.857Z,27.30
2022-12-15T23:26:28.689Z,28.50
2022-12-15T23:31:30.698Z,26.23
2022-12-15T23:36:32.559Z,34.10
2022-12-15T23:41:34.544Z,29.27
2022-12-15T23:46:39.322Z,29.23
2022-12-15T23:51:43.768Z,31.67
2022-12-15T23:56:45.495Z,29.53
